createdAt,value
2018-12-27T00:00:46.419Z,16.60
2018-12-27T00:05:52.924Z,16.60
2018-12-27T00:10:59.529Z,16.60
2018-12-27T00:16:05.841Z,16.60
2018-12-27T00:21:12.361Z,16.60
2018-12-27T00:26:18.747Z,16.60
2018-12-27T00:31:26.058Z,16.60
2018-12-27T00:36:35.116Z,16.60
2018-12-27T00:41:41.610Z,16.60
2018-12-27T00:46:52.910Z,16.60
2018-12-27T00:52:02.875Z,16.60
2018-12-27T00:57:13.814Z,16.60
2018-12-27T01:02:23.621Z,16.50
2018-12-27T01:07:34.644Z,16.50
2018-12-27T01:12:41.007Z,16.50
2018-12-27T01:17:47.738Z,16.50
2018-12-27T01:22:54.248Z,16.60
2018-12-27T01:28:00.522Z,16.60
2018-12-27T01:33:06.968Z,16.60
2018-12-27T01:38:13.214Z,16.50
2018-12-27T01:43:19.635Z,16.50
2018-12-27T01:48:25.950Z,16.60
2018-12-27T01:53:32.454Z,16.60
2018-12-27T01:58:39.027Z,16.60
2018-12-27T02:03:45.318Z,16.50
2018-12-27T02:08:51.669Z,16.50
2018-12-27T02:13:57.877Z,16.50
2018-12-27T02:19:04.330Z,16.50
2018-12-27T02:24:11.024Z,16.50
2018-12-27T02:29:17.416Z,16.60
2018-12-27T02:34:24.854Z,16.50
2018-12-27T02:39:31.272Z,16.50
2018-12-27T02:44:56.678Z,16.50
2018-12-27T02:50:03.171Z,16.50
2018-12-27T02:55:09.961Z,16.50
2018-12-27T03:00:16.108Z,16.50
2018-12-27T03:05:22.425Z,16.50
2018-12-27T03:10:28.864Z,16.50
2018-12-27T03:15:35.510Z,16.50
2018-12-27T03:20:41.785Z,16.50
2018-12-27T03:25:48.471Z,16.40
2018-12-27T03:30:54.859Z,16.40
2018-12-27T03:36:01.340Z,16.40
2018-12-27T03:41:07.687Z,16.40
2018-12-27T03:46:14.143Z,16.40
2018-12-27T03:51:20.577Z,16.40
2018-12-27T03:56:26.873Z,16.40
2018-12-27T04:01:33.240Z,16.40
2018-12-27T04:06:39.602Z,16.40
2018-12-27T04:11:46.060Z,16.40
2018-12-27T04:16:52.277Z,16.40
2018-12-27T04:21:58.570Z,16.40
2018-12-27T04:27:04.856Z,16.40
2018-12-27T04:32:11.174Z,16.50
2018-12-27T04:37:17.469Z,16.50
2018-12-27T04:42:23.850Z,16.40
2018-12-27T04:47:30.045Z,16.40
2018-12-27T04:52:36.340Z,16.40
2018-12-27T04:57:42.624Z,16.40
2018-12-27T05:02:49.032Z,16.40
2018-12-27T05:07:55.320Z,16.40
2018-12-27T05:13:01.746Z,16.40
2018-12-27T05:18:08.029Z,16.40
2018-12-27T05:23:14.951Z,16.40
2018-12-27T05:28:21.574Z,16.40
2018-12-27T05:33:27.767Z,16.40
2018-12-27T05:38:33.852Z,16.40
2018-12-27T05:43:40.210Z,16.40
2018-12-27T05:48:46.527Z,16.40
2018-12-27T05:53:52.822Z,16.40
2018-12-27T05:58:59.097Z,16.40
2018-12-27T06:04:05.318Z,16.40
2018-12-27T06:09:11.518Z,16.40
2018-12-27T06:14:17.949Z,16.40
2018-12-27T06:19:24.450Z,16.40
2018-12-27T06:24:31.070Z,16.40
2018-12-27T06:29:37.416Z,16.40
2018-12-27T06:34:43.718Z,16.40
2018-12-27T06:39:49.920Z,16.40
2018-12-27T06:44:56.142Z,16.40
2018-12-27T06:50:02.843Z,16.40
2018-12-27T06:55:09.406Z,16.40
2018-12-27T07:00:15.680Z,16.40
2018-12-27T07:05:21.975Z,16.40
2018-12-27T07:10:28.238Z,16.40
2018-12-27T07:15:34.746Z,16.40
2018-12-27T07:20:41.348Z,16.40
2018-12-27T07:25:47.552Z,16.40
2018-12-27T07:30:53.985Z,16.40
2018-12-27T07:36:00.162Z,16.40
2018-12-27T07:41:06.550Z,16.40
2018-12-27T07:46:12.879Z,16.30
2018-12-27T07:51:21.012Z,16.40
2018-12-27T07:56:27.442Z,16.40
2018-12-27T08:01:33.826Z,16.40
2018-12-27T08:06:40.141Z,16.30
2018-12-27T08:11:46.684Z,16.30
2018-12-27T08:16:52.948Z,16.40
2018-12-27T08:21:59.275Z,16.40
2018-12-27T08:27:05.605Z,16.40
2018-12-27T08:32:11.955Z,16.40
2018-12-27T08:37:18.234Z,16.40
2018-12-27T08:42:24.459Z,16.40
2018-12-27T08:47:30.961Z,16.40
2018-12-27T08:52:37.076Z,16.40
2018-12-27T08:57:43.424Z,16.50
2018-12-27T09:02:50.135Z,16.50
2018-12-27T09:07:56.434Z,16.40
2018-12-27T09:13:02.752Z,16.50
2018-12-27T09:18:08.936Z,16.50
2018-12-27T09:23:15.160Z,16.50
2018-12-27T09:28:21.837Z,16.60
2018-12-27T09:33:28.013Z,16.60
2018-12-27T09:38:34.669Z,16.60
2018-12-27T09:43:40.991Z,16.60
2018-12-27T09:48:47.329Z,16.70
2018-12-27T09:53:53.628Z,16.80
2018-12-27T09:58:59.701Z,16.80
2018-12-27T10:04:05.917Z,16.80
2018-12-27T10:09:12.674Z,16.90
2018-12-27T10:14:18.936Z,16.80
2018-12-27T10:19:25.283Z,16.90
2018-12-27T10:24:31.560Z,16.90
2018-12-27T10:29:37.946Z,16.90
2018-12-27T10:34:44.248Z,16.90
2018-12-27T10:39:50.769Z,16.90
2018-12-27T10:44:57.090Z,16.90
2018-12-27T10:50:03.344Z,16.90
2018-12-27T10:55:09.579Z,17.10
2018-12-27T11:00:15.720Z,17.10
2018-12-27T11:05:22.267Z,17.10
2018-12-27T11:10:28.455Z,17.10
2018-12-27T11:15:34.806Z,17.10
2018-12-27T11:20:41.320Z,17.20
2018-12-27T11:25:48.551Z,17.10
2018-12-27T11:30:54.882Z,17.10
2018-12-27T11:36:01.117Z,17.20
2018-12-27T11:41:07.295Z,17.20
2018-12-27T11:46:13.511Z,17.20
2018-12-27T11:51:20.023Z,17.20
2018-12-27T11:56:26.249Z,17.20
2018-12-27T12:01:32.409Z,17.20
2018-12-27T12:06:38.991Z,17.30
2018-12-27T12:11:45.348Z,17.30
2018-12-27T12:17:10.671Z,17.30
2018-12-27T12:22:16.985Z,17.30
2018-12-27T12:27:23.180Z,17.30
2018-12-27T12:32:29.564Z,17.20
2018-12-27T12:37:36.570Z,17.30
2018-12-27T12:42:42.885Z,17.20
2018-12-27T12:47:49.184Z,17.20
2018-12-27T12:52:55.889Z,17.30
2018-12-27T12:58:05.158Z,17.20
2018-12-27T13:03:13.892Z,17.20
2018-12-27T13:08:20.661Z,17.30
2018-12-27T13:13:26.988Z,17.30
2018-12-27T13:18:33.510Z,17.30
2018-12-27T13:23:39.789Z,17.30
2018-12-27T13:28:46.099Z,17.30
2018-12-27T13:33:52.350Z,17.30
2018-12-27T13:38:58.636Z,17.30
2018-12-27T13:44:05.059Z,17.20
2018-12-27T13:49:11.394Z,17.20
2018-12-27T13:54:17.690Z,17.20
2018-12-27T13:59:23.777Z,17.20
2018-12-27T14:04:29.895Z,17.20
2018-12-27T14:09:36.528Z,17.20
2018-12-27T14:14:42.859Z,17.20
2018-12-27T14:19:49.142Z,17.10
2018-12-27T14:24:58.004Z,17.10
2018-12-27T14:30:04.204Z,17.10
2018-12-27T14:35:10.560Z,17.10
2018-12-27T14:40:16.752Z,17.10
2018-12-27T14:45:22.929Z,17.00
2018-12-27T14:50:29.309Z,17.00
2018-12-27T14:55:35.565Z,17.00
2018-12-27T15:00:41.903Z,17.00
2018-12-27T15:05:48.235Z,17.00
2018-12-27T15:10:54.753Z,17.00
2018-12-27T15:16:01.079Z,17.00
2018-12-27T15:21:07.809Z,16.90
2018-12-27T15:26:14.070Z,16.90
2018-12-27T15:31:20.388Z,16.90
2018-12-27T15:36:27.043Z,16.80
2018-12-27T15:41:33.344Z,16.90
2018-12-27T15:46:39.745Z,16.90
2018-12-27T15:51:46.562Z,16.80
2018-12-27T15:56:53.470Z,16.80
2018-12-27T16:01:59.909Z,16.80
2018-12-27T16:07:07.759Z,16.70
2018-12-27T16:12:13.949Z,16.80
2018-12-27T16:17:20.502Z,16.70
2018-12-27T16:22:26.735Z,16.70
2018-12-27T16:27:33.160Z,16.70
2018-12-27T16:32:39.453Z,16.70
2018-12-27T16:37:45.612Z,16.70
2018-12-27T16:42:52.114Z,16.70
2018-12-27T16:47:58.466Z,16.70
2018-12-27T16:53:04.825Z,16.70
2018-12-27T16:58:11.433Z,16.70
2018-12-27T17:03:17.625Z,16.70
2018-12-27T17:08:23.992Z,16.70
2018-12-27T17:13:30.191Z,16.70
2018-12-27T17:18:36.413Z,16.60
2018-12-27T17:23:42.673Z,16.60
2018-12-27T17:28:48.974Z,16.60
2018-12-27T17:33:55.448Z,16.60
2018-12-27T17:39:01.592Z,16.60
2018-12-27T17:44:09.162Z,16.50
2018-12-27T17:49:15.266Z,16.60
2018-12-27T17:54:21.592Z,16.60
2018-12-27T17:59:27.816Z,16.60
2018-12-27T18:04:34.042Z,16.60
2018-12-27T18:09:40.218Z,16.60
2018-12-27T18:14:46.470Z,16.60
2018-12-27T18:19:52.647Z,16.60
2018-12-27T18:24:58.916Z,16.50
2018-12-27T18:30:05.758Z,16.50
2018-12-27T18:35:11.949Z,16.60
2018-12-27T18:40:18.210Z,16.60
2018-12-27T18:45:24.455Z,16.60
2018-12-27T18:50:31.039Z,16.60
2018-12-27T18:55:37.143Z,16.50
2018-12-27T19:00:43.709Z,16.50
2018-12-27T19:05:49.951Z,16.60
2018-12-27T19:11:32.174Z,16.60
2018-12-27T19:16:39.343Z,16.60
2018-12-27T19:22:36.237Z,16.50
2018-12-27T19:27:42.537Z,16.50
2018-12-27T19:32:48.976Z,16.50
2018-12-27T19:37:55.380Z,16.50
2018-12-27T19:43:01.759Z,16.60
2018-12-27T19:48:07.962Z,16.50
2018-12-27T19:53:14.213Z,16.60
2018-12-27T19:58:20.484Z,16.60
2018-12-27T20:03:26.701Z,16.60
2018-12-27T20:08:32.983Z,16.60
2018-12-27T20:13:39.270Z,16.60
2018-12-27T20:18:45.639Z,16.60
2018-12-27T20:23:53.282Z,16.60
2018-12-27T20:28:59.545Z,16.60
2018-12-27T20:34:05.721Z,16.60
2018-12-27T20:39:12.011Z,16.60
2018-12-27T20:44:18.212Z,16.60
2018-12-27T20:49:24.477Z,16.50
2018-12-27T20:54:31.046Z,16.50
2018-12-27T20:59:37.222Z,16.50
2018-12-27T21:04:43.417Z,16.60
2018-12-27T21:09:49.693Z,16.50
2018-12-27T21:14:56.103Z,16.60
2018-12-27T21:20:02.374Z,16.50
2018-12-27T21:25:08.630Z,16.50
2018-12-27T21:30:14.864Z,16.60
2018-12-27T21:35:21.155Z,16.50
2018-12-27T21:40:27.373Z,16.50
2018-12-27T21:45:33.549Z,16.50
2018-12-27T21:50:39.719Z,16.50
2018-12-27T21:55:45.820Z,16.50
2018-12-27T22:00:52.134Z,16.50
2018-12-27T22:05:58.346Z,16.50
2018-12-27T22:11:04.626Z,16.50
2018-12-27T22:16:10.943Z,16.50
2018-12-27T22:21:17.395Z,16.40
2018-12-27T22:26:23.722Z,16.40
2018-12-27T22:31:30.048Z,16.50
2018-12-27T22:36:36.326Z,16.40
2018-12-27T22:41:42.717Z,16.40
2018-12-27T22:46:48.965Z,16.40
2018-12-27T22:51:57.561Z,16.50
2018-12-27T22:57:03.793Z,16.40
2018-12-27T23:02:10.044Z,16.40
2018-12-27T23:07:16.290Z,16.40
2018-12-27T23:12:22.425Z,16.40
2018-12-27T23:17:28.625Z,16.40
2018-12-27T23:22:34.796Z,16.40
2018-12-27T23:27:40.900Z,16.40
2018-12-27T23:32:47.233Z,16.40
2018-12-27T23:37:53.323Z,16.40
2018-12-27T23:42:59.714Z,16.50
2018-12-27T23:48:05.870Z,16.40
2018-12-27T23:53:12.236Z,16.40
2018-12-27T23:58:18.586Z,16.40
